Crew Lake, Louisiana
Current Conditions -  °F | °C
As of 3:53 AM on Thursday 18 Dec 2014 (Local Time) from KMLU Reporting Station
Overcast Overcast  
Wind Chill: 41°   Ceiling: 3800
Heat Index: 45°   Visibility: 10mi
Dew Point: 41°   Wind: 7mph
Humidity: 86%   Direction: 70°ENE
Pressure: 30.19"   Gusts: NA
Location:  32.4475°N, 91.7992°W
Report Text: KMLU 180953Z AUTO 07006KT 10SM BKN038 OVC100 07/05 A3019 RMK AO2 SLP221 T00720050
Loading
Personal Weather Stations






























Interactive Weather Map New forecast layout! Learn more

10-Day Weather Forecast

Advertisements
Track Severe Weather on mobile